Time;durP1;ratioP1;P1;durP2;ratioP2;P2;SDS_P1;SDS_P2;PMS_P1;PMS_P2;Temp;Humidity;BMP_temperature;BMP_pressure;BME280_temperature;BME280_humidity;BME280_pressure;Samples;Min_cycle;Max_cycle;Signal;HPM_P1;HPM_P2
2021/12/27 00:01:55;;;;;;;15.15;8.10;;;;;;;4.44;96.28;92821.75;4820464;29;20058;-67
2021/12/27 00:04:22;;;;;;;15.77;7.90;;;;;;;4.32;96.30;92826.50;4820431;29;20046;-66
2021/12/27 00:06:50;;;;;;;17.90;8.73;;;;;;;4.26;97.13;92825.41;4837459;29;20058;-67
2021/12/27 00:09:17;;;;;;;15.05;7.88;;;;;;;4.24;96.82;92826.97;4841487;29;20087;-66
2021/12/27 00:11:44;;;;;;;14.23;7.10;;;;;;;4.21;96.31;92831.28;4842144;29;20067;-67
2021/12/27 00:14:10;;;;;;;14.48;7.88;;;;;;;4.11;97.31;92832.13;4841396;29;20417;-66
2021/12/27 00:16:38;;;;;;;14.40;8.00;;;;;;;4.12;97.64;92825.53;4842286;29;20449;-67
2021/12/27 00:19:05;;;;;;;15.48;8.13;;;;;;;4.13;97.06;92819.69;4841617;29;20050;-66
2021/12/27 00:21:32;;;;;;;22.33;12.50;;;;;;;4.14;98.16;92821.22;4841793;29;20060;-66
2021/12/27 00:23:58;;;;;;;15.97;8.13;;;;;;;4.14;98.37;92821.22;4841864;29;20114;-67
2021/12/27 00:26:25;;;;;;;23.13;12.30;;;;;;;4.17;98.23;92820.44;4841171;29;20088;-66
2021/12/27 00:28:52;;;;;;;21.25;9.48;;;;;;;4.13;98.88;92816.22;4830649;29;20048;-67
2021/12/27 00:31:19;;;;;;;14.45;7.57;;;;;;;4.12;98.39;92811.94;4814857;29;20139;-66
2021/12/27 00:33:45;;;;;;;17.75;8.93;;;;;;;4.12;98.36;92809.22;4823491;29;20125;-67
2021/12/27 00:36:12;;;;;;;15.77;8.00;;;;;;;4.06;99.09;92803.47;4836604;29;20317;-67
2021/12/27 00:38:39;;;;;;;13.82;7.18;;;;;;;4.09;98.39;92808.09;4823370;29;20077;-67
2021/12/27 00:41:06;;;;;;;22.80;10.52;;;;;;;4.00;99.53;92816.72;4822744;29;20061;-66
2021/12/27 00:43:33;;;;;;;25.88;11.05;;;;;;;4.00;99.82;92810.50;4823062;29;20066;-67
2021/12/27 00:46:00;;;;;;;30.17;12.70;;;;;;;3.98;100.00;92804.69;4823380;29;20054;-67
2021/12/27 00:48:27;;;;;;;21.77;10.10;;;;;;;3.94;100.00;92801.25;4822589;29;20061;-67
2021/12/27 00:50:54;;;;;;;21.02;9.07;;;;;;;3.98;100.00;92812.84;4823021;29;20057;-67
2021/12/27 00:53:20;;;;;;;20.02;9.80;;;;;;;3.97;100.00;92803.16;4821168;29;20054;-66
2021/12/27 00:55:47;;;;;;;29.30;13.93;;;;;;;4.01;100.00;92809.34;4823076;29;20060;-67
2021/12/27 00:58:14;;;;;;;24.08;11.27;;;;;;;4.03;99.71;92803.50;4822242;29;20058;-67
2021/12/27 01:00:41;;;;;;;19.13;8.80;;;;;;;4.00;99.84;92800.44;4822920;29;20046;-67
2021/12/27 01:03:08;;;;;;;15.68;7.68;;;;;;;3.99;100.00;92806.25;4822097;29;20053;-66
2021/12/27 01:05:35;;;;;;;17.50;7.65;;;;;;;4.04;100.00;92805.81;4826855;29;20046;-66
2021/12/27 01:08:02;;;;;;;19.05;8.30;;;;;;;4.10;100.00;92801.47;4841514;29;20061;-67
2021/12/27 01:15:52;;;;;;;15.73;7.45;;;;;;;4.22;99.20;92805.66;4839457;29;20256;-67
2021/12/27 01:18:20;;;;;;;15.27;7.22;;;;;;;4.25;98.78;92809.53;4840253;29;20050;-67
2021/12/27 01:20:47;;;;;;;14.18;6.78;;;;;;;4.25;98.40;92812.25;4841273;29;20050;-67
2021/12/27 01:23:14;;;;;;;14.10;6.82;;;;;;;4.24;98.91;92807.97;4840424;29;20101;-67
2021/12/27 01:25:41;;;;;;;15.17;7.57;;;;;;;4.23;98.86;92809.16;4840981;29;20046;-67
2021/12/27 01:28:08;;;;;;;18.13;8.27;;;;;;;4.14;97.94;92802.22;4837761;29;20057;-66
2021/12/27 01:30:38;;;;;;;21.05;8.63;;;;;;;4.06;98.55;92805.41;4811474;29;20055;-66
2021/12/27 01:33:07;;;;;;;23.00;8.35;;;;;;;3.95;99.06;92813.66;4822132;29;20054;-66
2021/12/27 01:35:35;;;;;;;21.45;9.13;;;;;;;3.87;99.58;92826.50;4822100;29;20062;-67
2021/12/27 01:38:02;;;;;;;30.73;12.13;;;;;;;3.92;99.58;92812.50;4822383;29;20046;-67
2021/12/27 01:40:30;;;;;;;44.10;20.75;;;;;;;3.95;99.99;92819.84;4821211;29;20657;-67
2021/12/27 01:43:00;;;;;;;25.58;11.77;;;;;;;4.05;99.72;92812.78;4822373;29;20080;-67
2021/12/27 01:45:27;;;;;;;22.90;10.20;;;;;;;4.12;99.72;92817.38;4821768;29;20056;-67
2021/12/27 01:47:54;;;;;;;21.25;9.13;;;;;;;4.15;98.94;92817.34;4822376;29;20046;-67
2021/12/27 01:50:21;;;;;;;17.00;7.63;;;;;;;4.25;99.01;92821.16;4821824;29;20050;-66
2021/12/27 01:52:48;;;;;;;13.68;6.22;;;;;;;4.22;98.95;92819.22;4822131;29;20386;-67
2021/12/27 01:55:15;;;;;;;13.45;6.43;;;;;;;4.24;98.20;92819.59;4821603;29;20058;-66
2021/12/27 01:57:42;;;;;;;11.52;5.72;;;;;;;4.29;97.76;92821.13;4822271;29;20330;-68
2021/12/27 02:00:10;;;;;;;11.48;6.03;;;;;;;4.30;97.90;92806.34;4821422;29;20054;-67
2021/12/27 02:02:44;;;;;;;11.77;6.07;;;;;;;4.26;97.68;92811.81;4822233;29;20106;-67
2021/12/27 02:05:12;;;;;;;9.98;4.97;;;;;;;4.18;96.64;92808.38;4822125;29;20049;-67
2021/12/27 02:07:40;;;;;;;10.80;4.97;;;;;;;4.15;96.63;92800.31;4840148;29;20052;-67
2021/12/27 02:10:09;;;;;;;9.93;5.05;;;;;;;4.17;96.48;92804.16;4839926;29;20415;-66
2021/12/27 02:12:35;;;;;;;10.30;5.00;;;;;;;4.10;96.60;92804.19;4840227;29;20473;-67
2021/12/27 02:15:07;;;;;;;10.60;4.97;;;;;;;4.08;97.29;92805.78;4840116;29;20125;-67
2021/12/27 02:17:39;;;;;;;11.70;4.97;;;;;;;4.08;96.88;92801.13;4839142;29;20875;-67
2021/12/27 02:20:16;;;;;;;10.27;4.97;;;;;;;4.10;96.96;92798.78;4839596;29;20046;-66
2021/12/27 02:22:44;;;;;;;10.80;5.38;;;;;;;4.06;96.83;92794.56;4839987;29;20042;-67
2021/12/27 02:25:13;;;;;;;11.15;5.38;;;;;;;4.08;97.20;92798.41;4839209;29;20448;-67
2021/12/27 02:27:41;;;;;;;12.63;5.80;;;;;;;4.11;97.45;92802.28;4839449;29;20050;-67
2021/12/27 02:30:11;;;;;;;12.85;5.43;;;;;;;4.07;97.16;92802.31;4811386;29;20051;-66
2021/12/27 02:32:52;;;;;;;14.68;6.80;;;;;;;3.94;98.52;92803.97;4821418;29;20050;-67
2021/12/27 02:35:23;;;;;;;12.93;5.70;;;;;;;4.07;98.15;92794.16;4820778;29;20056;-66
2021/12/27 02:37:51;;;;;;;11.57;5.32;;;;;;;4.14;97.21;92793.31;4821570;29;20050;-67
2021/12/27 02:40:19;;;;;;;11.23;5.37;;;;;;;4.09;97.06;92799.97;4820751;29;20049;-67
2021/12/27 02:42:52;;;;;;;11.57;5.30;;;;;;;3.99;97.16;92792.69;4821468;29;20058;-68
2021/12/27 02:45:20;;;;;;;11.32;5.50;;;;;;;3.90;97.61;92795.84;4820667;29;20080;-67
2021/12/27 02:47:48;;;;;;;11.10;5.13;;;;;;;3.96;97.27;92793.47;4821386;29;20050;-67
2021/12/27 02:50:14;;;;;;;11.13;5.43;;;;;;;3.90;97.47;92789.66;4820809;29;20057;-67
2021/12/27 02:52:41;;;;;;;11.03;5.07;;;;;;;3.92;97.41;92792.72;4823452;29;20050;-67
2021/12/27 02:55:12;;;;;;;13.10;6.10;;;;;;;3.88;97.52;92794.69;4822450;29;20053;-67
2021/12/27 02:57:39;;;;;;;12.77;5.88;;;;;;;3.86;97.62;92786.94;4823035;29;20054;-67
2021/12/27 03:00:15;;;;;;;11.38;5.75;;;;;;;3.82;97.74;92790.88;4822183;29;20058;-67
2021/12/27 03:02:44;;;;;;;11.80;6.00;;;;;;;3.79;97.94;92787.78;4821225;29;20180;-67
2021/12/27 03:05:13;;;;;;;12.87;5.77;;;;;;;3.77;98.49;92782.00;4821776;29;20054;-67
2021/12/27 03:07:40;;;;;;;11.05;5.32;;;;;;;3.80;97.76;92788.56;4839078;29;20119;-67
2021/12/27 03:10:10;;;;;;;11.48;5.60;;;;;;;3.80;97.86;92781.22;4838690;29;20046;-66
2021/12/27 03:12:38;;;;;;;14.15;5.70;;;;;;;3.78;98.79;92788.19;4839025;29;20508;-67
2021/12/27 03:15:09;;;;;;;14.10;6.22;;;;;;;3.75;99.24;92778.91;4837345;29;20054;-66
2021/12/27 03:17:36;;;;;;;21.07;7.50;;;;;;;3.79;99.97;92785.06;4838969;29;20439;-67
2021/12/27 03:20:05;;;;;;;19.17;7.68;;;;;;;3.83;99.42;92790.47;4838691;29;20049;-66
2021/12/27 03:22:32;;;;;;;26.65;9.82;;;;;;;3.78;100.00;92780.03;4838507;29;20061;-68
2021/12/27 03:25:00;;;;;;;22.90;8.27;;;;;;;3.82;99.83;92771.88;4838982;29;20062;-67
2021/12/27 03:27:27;;;;;;;17.02;7.32;;;;;;;3.82;100.00;92783.50;4838392;29;20169;-66
2021/12/27 03:29:54;;;;;;;20.43;8.10;;;;;;;3.91;99.79;92777.63;4838926;29;20046;-67
2021/12/27 03:32:21;;;;;;;16.92;7.40;;;;;;;3.92;100.00;92784.59;4837996;29;20060;-67
2021/12/27 03:35:03;;;;;;;14.90;6.68;;;;;;;3.92;100.00;92782.63;4820667;29;20054;-67
2021/12/27 03:37:30;;;;;;;15.80;6.88;;;;;;;4.06;99.74;92779.03;4804118;29;20933;-66
2021/12/27 03:39:57;;;;;;;22.05;8.38;;;;;;;4.07;100.00;92768.97;4801833;29;20050;-67
2021/12/27 03:42:24;;;;;;;22.13;7.90;;;;;;;4.10;99.89;92765.44;4815547;29;20058;-67
2021/12/27 03:44:51;;;;;;;21.85;8.32;;;;;;;4.05;99.71;92758.50;4802337;29;20480;-67
2021/12/27 03:47:17;;;;;;;17.35;7.50;;;;;;;4.09;100.00;92758.47;4801718;29;20609;-66
2021/12/27 03:49:44;;;;;;;16.20;7.20;;;;;;;4.15;100.00;92767.72;4802552;29;20051;-67
2021/12/27 03:52:11;;;;;;;17.77;8.00;;;;;;;4.25;99.88;92763.34;4801835;29;20061;-66
2021/12/27 03:54:37;;;;;;;30.97;11.00;;;;;;;4.25;98.93;92760.66;4802024;29;20077;-66
2021/12/27 03:57:04;;;;;;;20.10;7.85;;;;;;;4.23;99.66;92752.91;4801884;29;20053;-66
2021/12/27 03:59:51;;;;;;;25.08;8.80;;;;;;;4.28;99.02;92749.72;4801777;29;20394;-67
2021/12/27 04:02:18;;;;;;;21.45;8.07;;;;;;;4.24;99.33;92754.41;4801690;29;20070;-67
2021/12/27 04:04:45;;;;;;;19.48;7.95;;;;;;;4.30;98.54;92749.31;4802030;29;20069;-67
2021/12/27 04:07:12;;;;;;;19.40;7.93;;;;;;;4.29;99.48;92747.81;4834025;29;20053;-67
2021/12/27 04:09:39;;;;;;;19.83;8.45;;;;;;;4.34;98.86;92753.53;4838316;29;20524;-67
2021/12/27 04:12:08;;;;;;;24.88;10.07;;;;;;;4.26;98.51;92759.47;4838254;29;20054;-66
2021/12/27 04:14:37;;;;;;;29.48;13.57;;;;;;;4.22;99.10;92759.47;4838444;29;20053;-67
2021/12/27 04:17:04;;;;;;;30.10;11.73;;;;;;;4.29;98.56;92748.56;4838213;29;20503;-66
2021/12/27 04:19:30;;;;;;;38.90;13.23;;;;;;;4.27;98.54;92750.16;4838065;29;20436;-67
2021/12/27 04:21:57;;;;;;;36.58;14.60;;;;;;;4.31;98.71;92753.59;4838468;29;20050;-67
2021/12/27 04:24:24;;;;;;;24.80;12.25;;;;;;;4.25;98.51;92745.13;4837864;29;20066;-67
2021/12/27 04:26:51;;;;;;;19.08;8.77;;;;;;;4.23;98.72;92746.69;4838505;29;20085;-67
2021/12/27 04:29:18;;;;;;;18.95;8.07;;;;;;;4.19;98.31;92746.72;4837607;29;20038;-66
2021/12/27 04:31:44;;;;;;;17.83;7.90;;;;;;;4.26;98.67;92752.06;4838290;29;20080;-67
2021/12/27 04:34:11;;;;;;;18.33;8.13;;;;;;;4.19;98.53;92742.06;4827399;29;20074;-67
2021/12/27 04:36:38;;;;;;;17.20;7.60;;;;;;;4.28;98.01;92744.28;4805027;29;20071;-66
2021/12/27 04:39:05;;;;;;;23.10;9.68;;;;;;;4.16;98.11;92745.56;4801463;29;20047;-66
2021/12/27 04:41:32;;;;;;;29.73;12.45;;;;;;;4.03;99.06;92739.13;4801744;29;20050;-66
2021/12/27 04:43:58;;;;;;;28.37;11.80;;;;;;;4.02;98.90;92736.81;4801859;29;20062;-67
2021/12/27 04:46:25;;;;;;;23.40;8.85;;;;;;;4.08;98.95;92733.25;4801184;29;20085;-66
2021/12/27 04:48:52;;;;;;;25.52;9.40;;;;;;;4.15;98.89;92735.13;4802043;29;20061;-67
2021/12/27 04:51:20;;;;;;;20.55;8.48;;;;;;;4.23;98.43;92736.59;4802918;29;20409;-67
2021/12/27 04:53:49;;;;;;;20.25;8.70;;;;;;;4.26;97.89;92735.00;4804999;29;20064;-67
2021/12/27 04:56:16;;;;;;;17.03;8.27;;;;;;;4.18;98.06;92737.78;4804570;29;20074;-66
2021/12/27 04:58:45;;;;;;;18.27;7.85;;;;;;;4.29;97.91;92736.94;4804449;29;20419;-67
2021/12/27 05:01:16;;;;;;;16.38;7.57;;;;;;;4.28;98.33;92740.81;4804563;29;20053;-66
2021/12/27 05:03:43;;;;;;;17.67;7.93;;;;;;;4.34;97.79;92731.81;4804641;29;20115;-66
2021/12/27 05:06:13;;;;;;;20.10;8.75;;;;;;;4.34;97.50;92733.75;4820971;29;20045;-66
2021/12/27 05:08:40;;;;;;;18.10;8.33;;;;;;;4.33;97.76;92734.94;4841134;29;20273;-67
2021/12/27 05:11:09;;;;;;;18.83;8.02;;;;;;;4.32;97.88;92728.72;4840836;29;20054;-66
2021/12/27 05:13:36;;;;;;;20.80;9.00;;;;;;;4.28;97.54;92735.38;4840788;29;20054;-67
2021/12/27 05:16:03;;;;;;;21.48;9.50;;;;;;;4.25;97.58;92730.78;4839966;29;20053;-67
2021/12/27 05:18:30;;;;;;;22.98;9.68;;;;;;;4.18;97.60;92728.88;4839999;29;20919;-67
2021/12/27 05:20:57;;;;;;;25.40;10.23;;;;;;;4.12;98.47;92727.78;4841158;29;20076;-67
2021/12/27 05:23:24;;;;;;;23.88;10.10;;;;;;;4.15;98.71;92718.84;4840291;29;20054;-67
2021/12/27 05:25:51;;;;;;;24.92;10.77;;;;;;;4.17;98.54;92724.66;4840853;29;20065;-67
2021/12/27 05:28:18;;;;;;;21.65;9.48;;;;;;;4.04;98.99;92721.66;4839314;29;20401;-66
2021/12/27 05:30:48;;;;;;;29.33;14.73;;;;;;;4.04;98.65;92726.31;4840654;29;20050;-67
2021/12/27 05:33:15;;;;;;;20.90;9.97;;;;;;;3.90;99.81;92713.66;4840410;29;20146;-67
2021/12/27 05:35:42;;;;;;;23.42;9.80;;;;;;;3.85;99.75;92720.28;4805404;29;20058;-67
2021/12/27 05:38:09;;;;;;;23.63;10.35;;;;;;;3.94;99.66;92725.25;4819354;29;20134;-66
2021/12/27 05:40:37;;;;;;;21.23;9.30;;;;;;;3.92;100.00;92728.34;4822525;29;20050;-67
2021/12/27 05:43:06;;;;;;;19.35;9.00;;;;;;;3.92;99.52;92712.06;4821717;29;20054;-67
2021/12/27 05:45:35;;;;;;;21.10;9.80;;;;;;;3.98;100.00;92720.53;4820882;29;20050;-67
2021/12/27 05:48:04;;;;;;;23.75;9.38;;;;;;;4.06;99.30;92719.31;4822536;29;20058;-67
2021/12/27 05:50:30;;;;;;;21.73;9.40;;;;;;;4.07;99.24;92717.38;4821124;29;20804;-66
2021/12/27 05:52:57;;;;;;;23.27;9.55;;;;;;;4.05;99.21;92708.88;4822289;29;20050;-67
2021/12/27 05:55:24;;;;;;;24.70;9.65;;;;;;;4.05;100.00;92709.63;4821607;29;20062;-67
2021/12/27 05:57:51;;;;;;;25.50;9.93;;;;;;;4.03;100.00;92708.50;4822268;29;20062;-67
2021/12/27 06:00:18;;;;;;;26.83;10.40;;;;;;;3.99;100.00;92711.25;4821823;29;20054;-67
2021/12/27 06:02:46;;;;;;;26.30;10.45;;;;;;;4.02;100.00;92704.22;4821317;29;20062;-66
2021/12/27 06:05:13;;;;;;;32.80;11.27;;;;;;;4.05;100.00;92700.72;4822617;29;20064;-67
2021/12/27 06:07:40;;;;;;;26.73;10.65;;;;;;;4.03;100.00;92700.34;4839887;29;20053;-67
2021/12/27 06:10:07;;;;;;;27.27;10.10;;;;;;;4.05;100.00;92696.06;4839616;29;20050;-67
2021/12/27 06:12:34;;;;;;;26.85;10.85;;;;;;;4.03;100.00;92692.22;4840209;29;20050;-67
2021/12/27 06:15:01;;;;;;;23.90;9.80;;;;;;;4.05;100.00;92690.63;4839932;29;20057;-67
2021/12/27 06:17:30;;;;;;;23.15;9.70;;;;;;;4.05;100.00;92689.88;4838981;29;21716;-67
2021/12/27 06:19:56;;;;;;;22.38;10.05;;;;;;;4.01;100.00;92692.59;4839904;29;20052;-67
2021/12/27 06:22:23;;;;;;;24.27;9.60;;;;;;;4.04;99.95;92693.75;4839359;29;20054;-67
2021/12/27 06:24:50;;;;;;;23.63;10.50;;;;;;;4.05;100.00;92684.44;4839710;29;20056;-67
2021/12/27 06:27:17;;;;;;;22.63;10.10;;;;;;;4.03;100.00;92681.34;4837819;29;20084;-67
2021/12/27 06:29:44;;;;;;;23.00;9.45;;;;;;;3.97;99.91;92673.63;4839399;29;20437;-67
2021/12/27 06:32:13;;;;;;;24.75;10.23;;;;;;;3.91;100.00;92690.78;4839247;29;20049;-66
2021/12/27 06:34:40;;;;;;;23.97;10.03;;;;;;;3.89;100.00;92683.03;4839636;29;20066;-67
2021/12/27 06:37:07;;;;;;;24.65;9.90;;;;;;;3.84;100.00;92677.25;4839231;29;20053;-66
2021/12/27 06:39:34;;;;;;;25.23;9.80;;;;;;;3.87;100.00;92671.03;4839633;29;20046;-67
2021/12/27 06:42:01;;;;;;;25.60;12.10;;;;;;;3.89;100.00;92672.19;4853668;29;20046;-67
2021/12/27 06:44:27;;;;;;;22.67;10.05;;;;;;;3.86;99.95;92674.91;4838580;29;20121;-67
2021/12/27 06:46:59;;;;;;;22.03;9.73;;;;;;;3.87;100.00;92673.75;4839625;29;20121;-67
2021/12/27 06:49:31;;;;;;;24.95;12.02;;;;;;;3.87;100.00;92669.09;4838824;29;20097;-67
2021/12/27 06:51:59;;;;;;;22.83;9.98;;;;;;;3.88;99.52;92659.75;4838075;29;20078;-67
2021/12/27 06:54:26;;;;;;;20.02;9.05;;;;;;;3.87;100.00;92660.94;4838910;29;20155;-66
2021/12/27 06:56:54;;;;;;;18.48;8.40;;;;;;;3.83;99.57;92668.38;4839436;29;20056;-66
2021/12/27 06:59:21;;;;;;;21.77;8.93;;;;;;;3.88;100.00;92664.44;4838726;29;20053;-67
2021/12/27 07:01:47;;;;;;;20.40;8.82;;;;;;;3.90;99.54;92662.84;4837920;29;20056;-67
2021/12/27 07:04:14;;;;;;;19.38;8.48;;;;;;;3.93;98.85;92664.75;4804135;29;20054;-67
2021/12/27 07:06:41;;;;;;;19.13;8.25;;;;;;;4.00;99.33;92662.00;4830772;29;20060;-67
2021/12/27 07:09:08;;;;;;;20.17;7.85;;;;;;;4.00;99.15;92658.47;4839079;29;20106;-66
2021/12/27 07:11:36;;;;;;;21.80;8.30;;;;;;;3.96;98.89;92653.13;4839222;29;20054;-67
2021/12/27 07:14:04;;;;;;;18.50;7.55;;;;;;;3.94;98.74;92647.31;4839160;29;20054;-67
2021/12/27 07:16:31;;;;;;;18.27;7.25;;;;;;;3.98;98.97;92645.34;4837674;29;20803;-67
2021/12/27 07:18:58;;;;;;;16.98;7.45;;;;;;;4.03;98.47;92652.25;4839155;29;20443;-67
2021/12/27 07:21:25;;;;;;;16.25;7.53;;;;;;;3.97;98.40;92643.03;4837145;29;20102;-66
2021/12/27 07:23:52;;;;;;;17.23;7.10;;;;;;;3.93;98.40;92643.06;4838878;29;20056;-67
2021/12/27 07:26:19;;;;;;;15.07;6.70;;;;;;;3.94;97.92;92641.09;4838804;29;20050;-67
2021/12/27 07:28:46;;;;;;;17.60;7.15;;;;;;;4.00;97.78;92648.41;4838790;29;20440;-67
2021/12/27 07:31:12;;;;;;;14.52;6.85;;;;;;;3.99;97.51;92648.81;4838436;29;20080;-66
2021/12/27 07:33:39;;;;;;;17.10;7.15;;;;;;;3.97;98.17;92651.16;4838414;29;20042;-67
2021/12/27 07:36:08;;;;;;;15.10;7.17;;;;;;;4.06;97.50;92656.09;4838192;29;20062;-66
2021/12/27 07:38:36;;;;;;;15.93;7.00;;;;;;;3.98;97.11;92655.41;4838654;29;20060;-67
2021/12/27 07:41:03;;;;;;;17.45;7.88;;;;;;;3.96;97.65;92657.75;4838680;29;20053;-66
2021/12/27 07:43:30;;;;;;;15.70;6.75;;;;;;;3.88;96.97;92654.34;4837489;29;20839;-68
2021/12/27 07:45:57;;;;;;;16.50;7.60;;;;;;;3.85;98.01;92655.16;4838864;29;20415;-68
2021/12/27 07:48:24;;;;;;;16.97;7.13;;;;;;;3.97;97.93;92656.59;4838492;29;20062;-67
2021/12/27 07:50:51;;;;;;;16.65;7.72;;;;;;;4.04;97.06;92656.50;4838455;29;20053;-68
2021/12/27 07:53:17;;;;;;;18.67;7.95;;;;;;;3.98;97.35;92661.63;4838227;29;20046;-66
2021/12/27 07:55:44;;;;;;;18.92;8.07;;;;;;;3.93;97.26;92662.06;4838166;29;20054;-67
2021/12/27 07:58:11;;;;;;;22.45;9.25;;;;;;;4.03;97.74;92665.84;4837622;29;20057;-66
2021/12/27 08:00:38;;;;;;;19.20;8.80;;;;;;;4.17;97.03;92667.63;4838608;29;20547;-67
2021/12/27 08:03:06;;;;;;;20.92;8.93;;;;;;;4.12;97.78;92666.09;4838287;29;20109;-66
2021/12/27 08:05:33;;;;;;;23.25;9.13;;;;;;;3.94;97.26;92666.31;4852225;29;20046;-66
2021/12/27 08:08:00;;;;;;;22.58;9.63;;;;;;;3.98;98.72;92666.25;4838670;29;20054;-67
2021/12/27 08:10:28;;;;;;;21.35;8.65;;;;;;;3.88;98.07;92665.19;4838292;29;20046;-67
2021/12/27 08:12:55;;;;;;;19.13;8.00;;;;;;;3.83;98.95;92665.66;4838613;29;20079;-67
2021/12/27 08:15:23;;;;;;;21.38;8.40;;;;;;;3.86;98.92;92662.13;4837965;29;20062;-66
2021/12/27 08:17:50;;;;;;;19.63;8.73;;;;;;;3.84;99.36;92658.28;4838427;29;20050;-66
2021/12/27 08:20:17;;;;;;;16.65;7.22;;;;;;;3.85;98.92;92657.88;4838235;29;20045;-66
2021/12/27 08:22:44;;;;;;;19.83;8.43;;;;;;;3.89;99.10;92664.03;4838337;29;20056;-67
2021/12/27 08:25:11;;;;;;;30.13;10.10;;;;;;;3.89;99.35;92663.28;4838259;29;20052;-67
2021/12/27 08:27:41;;;;;;;23.40;8.75;;;;;;;3.90;98.90;92668.28;4841963;29;20056;-67
2021/12/27 08:30:09;;;;;;;24.95;8.55;;;;;;;3.82;98.74;92663.34;4841395;29;20408;-67
2021/12/27 08:32:38;;;;;;;24.17;8.73;;;;;;;3.89;98.02;92664.03;4841565;29;20050;-67
2021/12/27 08:35:06;;;;;;;23.88;8.75;;;;;;;3.74;99.46;92655.28;4840292;29;20064;-66
2021/12/27 08:37:33;;;;;;;16.70;7.37;;;;;;;3.75;99.47;92664.94;4841683;29;20046;-67
2021/12/27 08:40:01;;;;;;;15.88;7.55;;;;;;;3.82;99.10;92669.53;4841996;29;20046;-67
2021/12/27 08:42:28;;;;;;;18.52;8.63;;;;;;;3.88;98.89;92669.84;4841285;29;20117;-66
2021/12/27 08:44:55;;;;;;;17.08;7.80;;;;;;;3.98;98.28;92666.25;4841343;29;20044;-67
2021/12/27 08:47:22;;;;;;;17.83;7.97;;;;;;;4.03;98.01;92656.94;4841046;29;20050;-67
2021/12/27 08:49:49;;;;;;;13.53;6.13;;;;;;;4.01;97.77;92665.47;4841582;29;20068;-67
2021/12/27 08:52:30;;;;;;;15.75;7.20;;;;;;;4.06;97.89;92661.53;4840764;29;20333;-67
2021/12/27 08:54:58;;;;;;;15.23;7.10;;;;;;;4.19;97.18;92659.84;4841587;29;20054;-67
2021/12/27 08:57:25;;;;;;;18.50;8.32;;;;;;;4.42;97.24;92658.41;4840866;29;20053;-66
2021/12/27 08:59:52;;;;;;;18.70;8.23;;;;;;;4.61;95.91;92660.50;4841407;29;20057;-67
2021/12/27 09:02:18;;;;;;;16.80;7.57;;;;;;;4.69;95.43;92653.00;4834316;29;20051;-67
2021/12/27 09:04:45;;;;;;;15.80;7.10;;;;;;;4.63;94.63;92654.63;4806901;29;20050;-67
2021/12/27 09:07:12;;;;;;;17.65;8.57;;;;;;;4.82;95.21;92651.28;4838552;29;20053;-67
2021/12/27 09:09:39;;;;;;;13.15;6.63;;;;;;;4.67;94.11;92655.34;4841264;29;20076;-67
2021/12/27 09:12:07;;;;;;;14.70;7.55;;;;;;;4.53;95.02;92667.19;4841130;29;20046;-66
2021/12/27 09:14:34;;;;;;;15.20;7.47;;;;;;;4.75;93.99;92657.59;4854999;29;20054;-67
2021/12/27 09:17:01;;;;;;;15.07;8.18;;;;;;;4.96;93.85;92655.75;4841449;29;20045;-68
2021/12/27 09:19:28;;;;;;;15.32;7.40;;;;;;;5.12;92.87;92653.16;4854597;29;20520;-67
2021/12/27 09:21:56;;;;;;;16.13;7.88;;;;;;;5.21;92.17;92652.63;4840967;29;20057;-67
2021/12/27 09:24:23;;;;;;;16.85;7.70;;;;;;;4.90;92.15;92646.50;4840834;29;20066;-67
2021/12/27 09:26:50;;;;;;;12.50;6.00;;;;;;;4.80;92.36;92648.94;4854965;29;20042;-67
2021/12/27 09:29:17;;;;;;;13.63;6.50;;;;;;;4.90;92.38;92644.56;4854884;29;20050;-67
2021/12/27 09:31:43;;;;;;;11.38;5.97;;;;;;;4.98;93.04;92647.94;4841068;29;20042;-68
2021/12/27 09:34:10;;;;;;;18.65;8.98;;;;;;;4.88;92.65;92643.44;4840654;29;20050;-67
2021/12/27 09:36:37;;;;;;;23.48;10.27;;;;;;;4.92;93.40;92655.03;4838764;29;20054;-67
2021/12/27 09:39:05;;;;;;;15.70;7.90;;;;;;;5.15;92.73;92655.06;4839717;29;20114;-66
2021/12/27 09:41:32;;;;;;;15.20;7.57;;;;;;;5.16;92.46;92643.00;4840548;29;20042;-67
2021/12/27 09:43:58;;;;;;;11.38;5.72;;;;;;;5.04;92.21;92642.81;4840581;29;20046;-67
2021/12/27 09:46:25;;;;;;;9.98;4.95;;;;;;;4.99;92.91;92644.06;4840478;29;20049;-67
2021/12/27 09:48:56;;;;;;;10.13;5.47;;;;;;;4.99;93.25;92644.06;4840735;29;20050;-67
2021/12/27 09:51:23;;;;;;;9.80;5.30;;;;;;;5.13;92.19;92637.59;4840194;29;20496;-67
2021/12/27 09:53:52;;;;;;;10.68;5.72;;;;;;;5.23;91.96;92633.19;4840572;29;20046;-67
2021/12/27 09:56:19;;;;;;;10.02;5.90;;;;;;;5.44;91.40;92621.22;4838502;29;20042;-67
2021/12/27 09:58:45;;;;;;;11.60;5.35;;;;;;;5.49;89.90;92620.72;4839942;29;20049;-67
2021/12/27 10:01:12;;;;;;;12.25;6.10;;;;;;;5.30;90.72;92608.59;4854048;29;20102;-67
2021/12/27 10:03:53;;;;;;;8.80;4.63;;;;;;;5.23;90.54;92606.00;4814281;29;20054;-68
2021/12/27 10:06:21;;;;;;;10.43;5.18;;;;;;;5.26;90.98;92603.22;4826249;29;20050;-67
2021/12/27 10:08:55;;;;;;;9.05;5.00;;;;;;;5.25;92.13;92593.53;4839986;29;20050;-67
2021/12/27 10:11:42;;;;;;;9.15;4.80;;;;;;;5.60;90.80;92592.13;4854119;29;20064;-67
2021/12/27 10:14:18;;;;;;;8.40;4.63;;;;;;;5.74;89.02;92585.66;4840046;29;20046;-67
2021/12/27 10:17:12;;;;;;;8.57;3.87;;;;;;;5.59;88.77;92587.09;4840085;29;20050;-67
2021/12/27 10:19:39;;;;;;;8.02;4.55;;;;;;;5.44;89.42;92574.94;4841578;29;20407;-68
2021/12/27 10:22:12;;;;;;;8.57;4.72;;;;;;;5.60;89.08;92567.66;4842457;29;20049;-68
2021/12/27 10:24:39;;;;;;;8.25;4.72;;;;;;;5.71;88.24;92570.16;4842492;29;20049;-68
2021/12/27 10:27:06;;;;;;;8.70;4.75;;;;;;;5.79;88.48;92570.78;4840395;29;20048;-68
2021/12/27 10:29:39;;;;;;;16.53;6.67;;;;;;;5.97;87.60;92575.94;4839981;29;20050;-68
2021/12/27 10:32:13;;;;;;;13.63;5.80;;;;;;;6.16;86.78;92571.69;4839538;29;20045;-67
2021/12/27 10:34:43;;;;;;;17.25;6.78;;;;;;;6.49;85.48;92574.50;4840114;29;20373;-67
2021/12/27 10:37:24;;;;;;;11.93;5.40;;;;;;;6.77;84.31;92579.31;4839180;29;20041;-67
2021/12/27 10:39:54;;;;;;;8.50;4.30;;;;;;;6.87;83.00;92579.50;4839593;29;20046;-67
2021/12/27 10:42:48;;;;;;;7.43;4.10;;;;;;;6.79;84.02;92578.91;4839434;29;20046;-68
2021/12/27 10:45:21;;;;;;;12.68;5.30;;;;;;;7.20;82.29;92570.16;4853313;29;20061;-67
2021/12/27 10:47:53;;;;;;;17.83;6.35;;;;;;;7.08;80.73;92576.25;4838246;29;20086;-67
2021/12/27 10:50:23;;;;;;;12.50;5.20;;;;;;;6.71;83.33;92578.28;4839259;29;20067;-67
2021/12/27 10:52:52;;;;;;;13.82;5.45;;;;;;;6.87;83.80;92572.09;4839316;29;20104;-67
2021/12/27 10:55:23;;;;;;;9.93;5.40;;;;;;;6.71;82.56;92574.81;4839077;29;20113;-68
2021/12/27 10:57:51;;;;;;;20.77;10.43;;;;;;;6.54;83.73;92571.25;4839312;29;20060;-67
2021/12/27 11:00:25;;;;;;;7.88;4.72;;;;;;;6.28;84.84;92570.25;4839180;29;20050;-67
2021/12/27 11:02:52;;;;;;;9.43;5.97;;;;;;;6.64;84.18;92569.50;4826614;29;20468;-67
2021/12/27 11:05:23;;;;;;;8.30;4.90;;;;;;;6.51;84.01;92563.94;4815131;29;20057;-67
2021/12/27 11:08:01;;;;;;;7.63;4.20;;;;;;;6.54;83.93;92557.63;4839139;29;20076;-68
2021/12/27 11:10:31;;;;;;;7.13;4.30;;;;;;;6.58;83.47;92553.66;4837764;29;20057;-67
2021/12/27 11:12:59;;;;;;;12.18;5.50;;;;;;;6.95;82.91;92542.69;4839200;29;20073;-67
2021/12/27 11:15:28;;;;;;;16.80;6.97;;;;;;;7.19;81.62;92538.59;4838942;29;20052;-67
2021/12/27 11:17:56;;;;;;;11.98;6.22;;;;;;;7.56;80.21;92539.22;4839048;29;20049;-68
2021/12/27 11:20:25;;;;;;;7.77;4.43;;;;;;;7.33;80.76;92532.00;4838836;29;20045;-68
2021/12/27 11:22:58;;;;;;;45.45;21.38;;;;;;;7.48;80.93;92531.66;4848394;29;20042;-68
2021/12/27 11:25:40;;;;;;;17.45;9.00;;;;;;;7.11;81.75;92536.47;4838720;29;20093;-67
2021/12/27 11:28:40;;;;;;;11.73;6.35;;;;;;;6.88;82.64;92534.66;4838553;29;20052;-67
2021/12/27 11:31:19;;;;;;;13.02;6.20;;;;;;;7.00;83.17;92528.53;4838530;29;20052;-67
2021/12/27 11:33:59;;;;;;;8.60;4.60;;;;;;;6.73;82.56;92526.06;4839053;29;20038;-67
2021/12/27 11:36:29;;;;;;;9.10;4.80;;;;;;;6.68;83.63;92527.34;4837434;29;20487;-67
2021/12/27 11:38:57;;;;;;;9.07;4.90;;;;;;;6.37;84.29;92530.34;4838957;29;20054;-67
2021/12/27 11:41:24;;;;;;;8.07;4.40;;;;;;;6.56;84.20;92528.00;4838637;29;20064;-67
2021/12/27 11:44:08;;;;;;;9.25;5.03;;;;;;;6.67;84.69;92525.81;4838886;29;20041;-68